sensor_id;sensor_type;location;lat;lon;timestamp;pressure;altitude;pressure_sealevel;temperature;humidity
52249;BME280;38541;48.130;8.378;2024-01-30T00:00:44;93991.06;;;1.85;69.48
52249;BME280;38541;48.130;8.378;2024-01-30T00:03:10;93985.25;;;1.83;68.93
52249;BME280;38541;48.130;8.378;2024-01-30T00:05:37;93988.75;;;1.90;69.84
52249;BME280;38541;48.130;8.378;2024-01-30T00:08:04;93988.22;;;1.95;70.31
52249;BME280;38541;48.130;8.378;2024-01-30T00:10:30;93990.81;;;2.10;70.14
52249;BME280;38541;48.130;8.378;2024-01-30T00:12:57;93987.50;;;2.01;69.16
52249;BME280;38541;48.130;8.378;2024-01-30T00:15:23;93988.47;;;2.00;68.59
52249;BME280;38541;48.130;8.378;2024-01-30T00:17:50;93985.09;;;1.99;68.37
52249;BME280;38541;48.130;8.378;2024-01-30T00:20:20;93991.69;;;2.02;69.01
52249;BME280;38541;48.130;8.378;2024-01-30T00:22:46;93978.28;;;1.98;69.73
52249;BME280;38541;48.130;8.378;2024-01-30T00:25:13;93989.72;;;2.04;69.46
52249;BME280;38541;48.130;8.378;2024-01-30T00:27:40;93984.75;;;2.03;68.71
52249;BME280;38541;48.130;8.378;2024-01-30T00:30:06;93989.56;;;2.06;69.51
52249;BME280;38541;48.130;8.378;2024-01-30T00:32:33;93986.97;;;2.06;69.25
52249;BME280;38541;48.130;8.378;2024-01-30T00:34:59;93987.34;;;2.03;69.14
52249;BME280;38541;48.130;8.378;2024-01-30T00:37:26;93986.97;;;2.06;68.94
52249;BME280;38541;48.130;8.378;2024-01-30T00:39:53;93989.38;;;2.07;69.45
52249;BME280;38541;48.130;8.378;2024-01-30T00:42:19;93988.38;;;2.08;68.80
52249;BME280;38541;48.130;8.378;2024-01-30T00:44:46;93983.75;;;2.04;67.90
52249;BME280;38541;48.130;8.378;2024-01-30T00:47:12;93992.31;;;2.04;68.32
52249;BME280;38541;48.130;8.378;2024-01-30T00:49:39;93994.28;;;2.02;68.33
52249;BME280;38541;48.130;8.378;2024-01-30T00:52:05;93990.00;;;1.94;68.13
52249;BME280;38541;48.130;8.378;2024-01-30T00:54:32;93988.66;;;1.98;68.89
52249;BME280;38541;48.130;8.378;2024-01-30T00:56:58;93995.00;;;1.96;68.53
52249;BME280;38541;48.130;8.378;2024-01-30T00:59:25;93986.78;;;1.92;69.07
52249;BME280;38541;48.130;8.378;2024-01-30T01:01:52;93988.66;;;1.98;68.53
52249;BME280;38541;48.130;8.378;2024-01-30T01:04:18;93984.63;;;1.96;68.24
52249;BME280;38541;48.130;8.378;2024-01-30T01:06:45;93988.22;;;1.95;68.08
52249;BME280;38541;48.130;8.378;2024-01-30T01:09:12;93986.50;;;1.87;67.85
52249;BME280;38541;48.130;8.378;2024-01-30T01:11:39;93988.47;;;1.85;68.81
52249;BME280;38541;48.130;8.378;2024-01-30T01:14:05;93989.63;;;1.82;68.36
52249;BME280;38541;48.130;8.378;2024-01-30T01:16:33;93989.00;;;1.80;68.92
52249;BME280;38541;48.130;8.378;2024-01-30T01:18:59;93996.31;;;1.77;69.03
52249;BME280;38541;48.130;8.378;2024-01-30T01:21:26;94004.03;;;1.85;69.27
52249;BME280;38541;48.130;8.378;2024-01-30T01:23:53;93999.28;;;1.89;68.93
52249;BME280;38541;48.130;8.378;2024-01-30T01:26:20;93990.34;;;1.91;68.60
52249;BME280;38541;48.130;8.378;2024-01-30T01:28:47;93993.19;;;1.96;69.12
52249;BME280;38541;48.130;8.378;2024-01-30T01:31:14;93989.81;;;1.96;69.04
52249;BME280;38541;48.130;8.378;2024-01-30T01:33:41;93985.44;;;1.96;68.73
52249;BME280;38541;48.130;8.378;2024-01-30T01:36:07;93997.06;;;2.01;68.94
52249;BME280;38541;48.130;8.378;2024-01-30T01:38:34;93987.34;;;2.03;68.84
52249;BME280;38541;48.130;8.378;2024-01-30T01:41:00;93991.25;;;1.98;68.39
52249;BME280;38541;48.130;8.378;2024-01-30T01:43:27;93992.22;;;1.97;68.93
52249;BME280;38541;48.130;8.378;2024-01-30T01:45:53;93990.63;;;1.96;68.79
52249;BME280;38541;48.130;8.378;2024-01-30T01:48:20;93982.84;;;1.96;68.64
52249;BME280;38541;48.130;8.378;2024-01-30T01:50:47;93984.19;;;1.92;68.02
52249;BME280;38541;48.130;8.378;2024-01-30T01:53:14;93981.78;;;1.91;68.86
52249;BME280;38541;48.130;8.378;2024-01-30T01:55:42;93978.94;;;2.01;68.03
52249;BME280;38541;48.130;8.378;2024-01-30T01:58:09;93982.41;;;2.08;68.34
52249;BME280;38541;48.130;8.378;2024-01-30T02:00:36;93986.59;;;2.09;67.93
52249;BME280;38541;48.130;8.378;2024-01-30T02:03:06;93985.63;;;2.10;67.59
52249;BME280;38541;48.130;8.378;2024-01-30T02:05:34;93974.72;;;1.99;68.06
52249;BME280;38541;48.130;8.378;2024-01-30T02:08:01;93979.56;;;2.03;68.43
52249;BME280;38541;48.130;8.378;2024-01-30T02:10:28;93976.41;;;2.07;68.45
52249;BME280;38541;48.130;8.378;2024-01-30T02:12:54;93980.06;;;2.13;68.14
52249;BME280;38541;48.130;8.378;2024-01-30T02:15:21;93975.19;;;2.18;67.62
52249;BME280;38541;48.130;8.378;2024-01-30T02:17:47;93975.81;;;2.20;67.15
52249;BME280;38541;48.130;8.378;2024-01-30T02:20:14;93975.97;;;2.34;65.93
52249;BME280;38541;48.130;8.378;2024-01-30T02:22:41;93971.59;;;2.34;65.64
52249;BME280;38541;48.130;8.378;2024-01-30T02:25:09;93972.03;;;2.38;65.23
52249;BME280;38541;48.130;8.378;2024-01-30T02:27:35;93968.53;;;2.46;65.39
52249;BME280;38541;48.130;8.378;2024-01-30T02:30:02;93957.72;;;2.42;65.69
52249;BME280;38541;48.130;8.378;2024-01-30T02:32:29;93962.09;;;2.41;65.89
52249;BME280;38541;48.130;8.378;2024-01-30T02:34:55;93966.03;;;2.37;65.83
52249;BME280;38541;48.130;8.378;2024-01-30T02:37:22;93965.59;;;2.34;65.77
52249;BME280;38541;48.130;8.378;2024-01-30T02:39:48;93959.00;;;2.31;66.12
52249;BME280;38541;48.130;8.378;2024-01-30T02:42:15;93963.09;;;2.25;66.39
52249;BME280;38541;48.130;8.378;2024-01-30T02:44:41;93957.47;;;2.22;66.27
52249;BME280;38541;48.130;8.378;2024-01-30T02:47:08;93964.09;;;2.24;66.61
52249;BME280;38541;48.130;8.378;2024-01-30T02:49:34;93956.66;;;2.21;66.75
52249;BME280;38541;48.130;8.378;2024-01-30T02:52:01;93958.09;;;2.09;66.61
52249;BME280;38541;48.130;8.378;2024-01-30T02:54:27;93958.91;;;2.09;67.21
52249;BME280;38541;48.130;8.378;2024-01-30T02:56:54;93960.94;;;2.14;67.32
52249;BME280;38541;48.130;8.378;2024-01-30T02:59:20;93962.66;;;2.07;67.25
52249;BME280;38541;48.130;8.378;2024-01-30T03:01:47;93956.13;;;2.11;67.21
52249;BME280;38541;48.130;8.378;2024-01-30T03:04:14;93956.94;;;2.11;66.93
52249;BME280;38541;48.130;8.378;2024-01-30T03:06:47;93955.88;;;2.06;67.29
52249;BME280;38541;48.130;8.378;2024-01-30T03:09:16;93961.56;;;2.01;67.24
52249;BME280;38541;48.130;8.378;2024-01-30T03:11:44;93961.13;;;1.97;67.19
52249;BME280;38541;48.130;8.378;2024-01-30T03:14:10;93953.00;;;2.01;67.05
52249;BME280;38541;48.130;8.378;2024-01-30T03:16:37;93964.78;;;2.03;67.37
52249;BME280;38541;48.130;8.378;2024-01-30T03:19:06;93965.97;;;2.01;67.38
52249;BME280;38541;48.130;8.378;2024-01-30T03:21:34;93969.53;;;1.99;66.80
52249;BME280;38541;48.130;8.378;2024-01-30T03:24:01;93963.13;;;2.10;66.99
52249;BME280;38541;48.130;8.378;2024-01-30T03:26:27;93968.56;;;2.16;67.02
52249;BME280;38541;48.130;8.378;2024-01-30T03:28:53;93961.84;;;2.21;66.96
52249;BME280;38541;48.130;8.378;2024-01-30T03:31:20;93972.47;;;2.26;66.75
52249;BME280;38541;48.130;8.378;2024-01-30T03:33:47;93969.53;;;2.30;66.56
52249;BME280;38541;48.130;8.378;2024-01-30T03:36:15;93966.84;;;2.38;65.28
52249;BME280;38541;48.130;8.378;2024-01-30T03:38:42;93974.16;;;2.49;64.87
52249;BME280;38541;48.130;8.378;2024-01-30T03:41:09;93963.50;;;2.59;64.86
52249;BME280;38541;48.130;8.378;2024-01-30T03:43:36;93967.53;;;2.62;64.91
52249;BME280;38541;48.130;8.378;2024-01-30T03:46:03;93964.41;;;2.51;65.17
52249;BME280;38541;48.130;8.378;2024-01-30T03:48:30;93974.72;;;2.30;64.80
52249;BME280;38541;48.130;8.378;2024-01-30T03:50:56;93969.72;;;2.28;64.87
52249;BME280;38541;48.130;8.378;2024-01-30T03:53:22;93964.34;;;2.30;65.27
52249;BME280;38541;48.130;8.378;2024-01-30T03:55:49;93968.38;;;2.32;65.17
52249;BME280;38541;48.130;8.378;2024-01-30T03:58:16;93974.72;;;2.30;65.04
52249;BME280;38541;48.130;8.378;2024-01-30T04:00:42;93972.84;;;2.23;65.52
52249;BME280;38541;48.130;8.378;2024-01-30T04:03:09;93969.81;;;2.20;65.86
52249;BME280;38541;48.130;8.378;2024-01-30T04:05:36;93965.44;;;2.20;65.89
52249;BME280;38541;48.130;8.378;2024-01-30T04:08:02;93973.22;;;2.20;65.97
52249;BME280;38541;48.130;8.378;2024-01-30T04:10:29;93967.41;;;2.18;65.70
52249;BME280;38541;48.130;8.378;2024-01-30T04:12:55;93966.94;;;2.30;64.99
52249;BME280;38541;48.130;8.378;2024-01-30T04:15:22;93959.69;;;2.40;65.60
52249;BME280;38541;48.130;8.378;2024-01-30T04:17:48;93963.34;;;2.31;64.81
52249;BME280;38541;48.130;8.378;2024-01-30T04:20:15;93963.81;;;2.19;64.98
52249;BME280;38541;48.130;8.378;2024-01-30T04:22:45;93965.59;;;2.19;64.94
52249;BME280;38541;48.130;8.378;2024-01-30T04:25:13;93967.22;;;2.20;65.54
52249;BME280;38541;48.130;8.378;2024-01-30T04:27:39;93970.94;;;2.17;65.26
52249;BME280;38541;48.130;8.378;2024-01-30T04:30:06;93972.13;;;2.14;65.37
52249;BME280;38541;48.130;8.378;2024-01-30T04:32:33;93973.47;;;2.10;65.58
52249;BME280;38541;48.130;8.378;2024-01-30T04:35:00;93963.91;;;2.11;65.99
52249;BME280;38541;48.130;8.378;2024-01-30T04:37:26;93966.50;;;2.11;65.92
52249;BME280;38541;48.130;8.378;2024-01-30T04:39:54;93974.28;;;2.11;65.40
52249;BME280;38541;48.130;8.378;2024-01-30T04:42:20;93971.22;;;2.07;65.82
52249;BME280;38541;48.130;8.378;2024-01-30T04:44:47;93965.25;;;2.07;65.56
52249;BME280;38541;48.130;8.378;2024-01-30T04:47:13;93983.13;;;2.02;65.64
52249;BME280;38541;48.130;8.378;2024-01-30T04:49:40;93977.22;;;2.08;65.54
52249;BME280;38541;48.130;8.378;2024-01-30T04:52:07;93975.63;;;2.07;64.98
52249;BME280;38541;48.130;8.378;2024-01-30T04:54:34;93974.38;;;2.03;64.60
52249;BME280;38541;48.130;8.378;2024-01-30T04:57:04;93975.69;;;1.98;64.74
52249;BME280;38541;48.130;8.378;2024-01-30T04:59:32;93980.25;;;1.96;65.61
52249;BME280;38541;48.130;8.378;2024-01-30T05:01:58;93977.84;;;1.95;65.04
52249;BME280;38541;48.130;8.378;2024-01-30T05:04:25;93979.81;;;1.93;65.68
52249;BME280;38541;48.130;8.378;2024-01-30T05:06:51;93976.03;;;1.95;65.71
52249;BME280;38541;48.130;8.378;2024-01-30T05:09:18;93984.75;;;2.03;65.95
52249;BME280;38541;48.130;8.378;2024-01-30T05:11:45;93981.84;;;1.97;65.15
52249;BME280;38541;48.130;8.378;2024-01-30T05:14:11;93988.94;;;2.04;65.22
52249;BME280;38541;48.130;8.378;2024-01-30T05:16:38;93984.81;;;1.94;65.25
52249;BME280;38541;48.130;8.378;2024-01-30T05:19:04;93991.69;;;1.87;65.61
52249;BME280;38541;48.130;8.378;2024-01-30T05:21:31;93985.59;;;1.80;65.27
52249;BME280;38541;48.130;8.378;2024-01-30T05:23:58;93983.19;;;1.78;65.28
52249;BME280;38541;48.130;8.378;2024-01-30T05:26:24;93983.81;;;1.95;63.93
52249;BME280;38541;48.130;8.378;2024-01-30T05:28:51;93987.03;;;1.97;64.11
52249;BME280;38541;48.130;8.378;2024-01-30T05:31:18;93984.81;;;1.94;64.17
52249;BME280;38541;48.130;8.378;2024-01-30T05:33:44;93991.59;;;1.95;64.38
52249;BME280;38541;48.130;8.378;2024-01-30T05:36:12;93985.78;;;1.93;64.26
52249;BME280;38541;48.130;8.378;2024-01-30T05:38:39;93992.16;;;1.91;64.31
52249;BME280;38541;48.130;8.378;2024-01-30T05:41:06;93989.56;;;1.91;64.93
52249;BME280;38541;48.130;8.378;2024-01-30T05:43:32;93982.66;;;1.98;64.77
52249;BME280;38541;48.130;8.378;2024-01-30T05:45:59;93986.41;;;1.95;64.58
52249;BME280;38541;48.130;8.378;2024-01-30T05:48:26;93985.97;;;1.92;64.39
52249;BME280;38541;48.130;8.378;2024-01-30T05:50:52;93983.00;;;1.80;64.97
52249;BME280;38541;48.130;8.378;2024-01-30T05:53:19;93993.78;;;1.68;65.07
52249;BME280;38541;48.130;8.378;2024-01-30T05:55:45;93993.75;;;1.92;64.10
52249;BME280;38541;48.130;8.378;2024-01-30T05:58:12;93987.03;;;1.97;63.92
52249;BME280;38541;48.130;8.378;2024-01-30T06:00:39;93994.19;;;1.95;63.75
52249;BME280;38541;48.130;8.378;2024-01-30T06:03:05;93989.00;;;1.95;63.77
52249;BME280;38541;48.130;8.378;2024-01-30T06:05:32;93986.34;;;2.19;62.42
52249;BME280;38541;48.130;8.378;2024-01-30T06:07:58;93993.75;;;2.07;62.89
52249;BME280;38541;48.130;8.378;2024-01-30T06:10:25;94000.81;;;1.98;63.32
52249;BME280;38541;48.130;8.378;2024-01-30T06:12:53;93995.78;;;1.96;63.71
52249;BME280;38541;48.130;8.378;2024-01-30T06:15:19;93997.88;;;2.01;63.11
52249;BME280;38541;48.130;8.378;2024-01-30T06:17:47;94000.91;;;2.05;63.04
52249;BME280;38541;48.130;8.378;2024-01-30T06:20:13;93996.78;;;1.95;63.28
52249;BME280;38541;48.130;8.378;2024-01-30T06:22:40;94006.00;;;1.98;63.49
52249;BME280;38541;48.130;8.378;2024-01-30T06:25:07;93997.75;;;1.94;63.57
52249;BME280;38541;48.130;8.378;2024-01-30T06:27:33;94003.13;;;1.93;63.55
52249;BME280;38541;48.130;8.378;2024-01-30T06:30:01;94004.19;;;1.83;64.05
52249;BME280;38541;48.130;8.378;2024-01-30T06:32:27;94006.50;;;1.78;64.32
52249;BME280;38541;48.130;8.378;2024-01-30T06:34:55;94008.63;;;1.75;63.73
52249;BME280;38541;48.130;8.378;2024-01-30T06:37:21;94001.63;;;1.60;64.37
52249;BME280;38541;48.130;8.378;2024-01-30T06:39:48;94004.81;;;1.47;65.16
52249;BME280;38541;48.130;8.378;2024-01-30T06:42:15;93999.13;;;1.52;64.55
52249;BME280;38541;48.130;8.378;2024-01-30T06:44:42;94001.97;;;1.57;65.05
52249;BME280;38541;48.130;8.378;2024-01-30T06:47:08;94012.06;;;1.52;64.95
52249;BME280;38541;48.130;8.378;2024-01-30T06:49:35;94013.50;;;1.54;64.17
52249;BME280;38541;48.130;8.378;2024-01-30T06:52:05;94010.38;;;1.59;64.43
52249;BME280;38541;48.130;8.378;2024-01-30T06:54:32;94007.28;;;1.64;64.45
52249;BME280;38541;48.130;8.378;2024-01-30T06:56:59;94013.44;;;1.63;64.17
52249;BME280;38541;48.130;8.378;2024-01-30T06:59:26;94008.59;;;1.60;63.79
52249;BME280;38541;48.130;8.378;2024-01-30T07:01:52;94005.84;;;1.61;65.06
52249;BME280;38541;48.130;8.378;2024-01-30T07:04:19;94004.69;;;1.64;64.47
52249;BME280;38541;48.130;8.378;2024-01-30T07:06:46;94007.28;;;1.64;64.66
52249;BME280;38541;48.130;8.378;2024-01-30T07:09:12;94006.13;;;1.66;64.43
52249;BME280;38541;48.130;8.378;2024-01-30T07:11:40;94010.47;;;1.66;64.84
52249;BME280;38541;48.130;8.378;2024-01-30T07:14:08;94017.13;;;1.68;65.44
52249;BME280;38541;48.130;8.378;2024-01-30T07:16:35;94008.81;;;1.73;64.88
52249;BME280;38541;48.130;8.378;2024-01-30T07:19:02;94011.84;;;1.77;64.74
52249;BME280;38541;48.130;8.378;2024-01-30T07:21:29;94010.25;;;1.76;63.89
52249;BME280;38541;48.130;8.378;2024-01-30T07:23:55;94018.00;;;1.76;64.72
52249;BME280;38541;48.130;8.378;2024-01-30T07:26:22;94012.84;;;1.76;64.62
52249;BME280;38541;48.130;8.378;2024-01-30T07:28:49;94016.06;;;1.78;64.12
52249;BME280;38541;48.130;8.378;2024-01-30T07:31:16;94015.41;;;1.76;64.73
52249;BME280;38541;48.130;8.378;2024-01-30T07:33:43;94023.50;;;1.81;64.81
52249;BME280;38541;48.130;8.378;2024-01-30T07:36:09;94022.69;;;1.80;64.92
52249;BME280;38541;48.130;8.378;2024-01-30T07:38:37;94028.75;;;1.88;64.73
52249;BME280;38541;48.130;8.378;2024-01-30T07:41:03;94028.50;;;1.97;64.19
52249;BME280;38541;48.130;8.378;2024-01-30T07:43:30;94023.06;;;2.07;62.37
52249;BME280;38541;48.130;8.378;2024-01-30T07:45:56;94025.84;;;2.36;62.28
52249;BME280;38541;48.130;8.378;2024-01-30T07:48:23;94021.66;;;2.50;61.63
52249;BME280;38541;48.130;8.378;2024-01-30T07:50:49;94021.38;;;2.45;62.98
52249;BME280;38541;48.130;8.378;2024-01-30T07:53:16;94030.72;;;2.39;63.01
52249;BME280;38541;48.130;8.378;2024-01-30T07:55:42;94030.97;;;2.44;62.53
52249;BME280;38541;48.130;8.378;2024-01-30T07:58:12;94024.97;;;2.59;61.05
52249;BME280;38541;48.130;8.378;2024-01-30T08:00:39;94021.78;;;2.93;60.33
52249;BME280;38541;48.130;8.378;2024-01-30T08:03:05;94023.84;;;2.98;61.65
52249;BME280;38541;48.130;8.378;2024-01-30T08:05:32;94022.22;;;2.97;61.76
52249;BME280;38541;48.130;8.378;2024-01-30T08:07:59;94017.56;;;3.29;58.85
52249;BME280;38541;48.130;8.378;2024-01-30T08:10:25;94022.94;;;3.49;59.01
52249;BME280;38541;48.130;8.378;2024-01-30T08:12:52;94021.59;;;3.53;59.81
52249;BME280;38541;48.130;8.378;2024-01-30T08:15:18;94023.72;;;3.93;56.30
52249;BME280;38541;48.130;8.378;2024-01-30T08:17:45;94026.88;;;4.17;55.93
52249;BME280;38541;48.130;8.378;2024-01-30T08:20:11;94015.88;;;4.50;53.72
52249;BME280;38541;48.130;8.378;2024-01-30T08:22:39;94025.75;;;5.10;51.16
52249;BME280;38541;48.130;8.378;2024-01-30T08:25:08;94020.00;;;5.42;49.96
52249;BME280;38541;48.130;8.378;2024-01-30T08:27:36;94027.47;;;5.65;49.41
52249;BME280;38541;48.130;8.378;2024-01-30T08:30:06;94026.06;;;5.83;48.88
52249;BME280;38541;48.130;8.378;2024-01-30T08:32:33;94022.47;;;5.97;48.29
52249;BME280;38541;48.130;8.378;2024-01-30T08:35:00;94025.50;;;6.08;49.22
52249;BME280;38541;48.130;8.378;2024-01-30T08:37:30;94025.88;;;6.32;47.11
52249;BME280;38541;48.130;8.378;2024-01-30T08:39:56;94015.81;;;6.42;47.82
52249;BME280;38541;48.130;8.378;2024-01-30T08:42:23;94024.63;;;6.54;48.18
52249;BME280;38541;48.130;8.378;2024-01-30T08:44:49;94027.44;;;6.60;48.33
52249;BME280;38541;48.130;8.378;2024-01-30T08:47:17;94025.59;;;6.74;46.61
52249;BME280;38541;48.130;8.378;2024-01-30T08:49:45;94020.06;;;6.95;45.08
52249;BME280;38541;48.130;8.378;2024-01-30T08:52:11;94016.72;;;7.27;45.16
52249;BME280;38541;48.130;8.378;2024-01-30T08:54:38;94022.72;;;7.34;45.25
52249;BME280;38541;48.130;8.378;2024-01-30T08:57:05;94020.22;;;7.53;45.21
52249;BME280;38541;48.130;8.378;2024-01-30T08:59:31;94016.84;;;7.71;43.54
52249;BME280;38541;48.130;8.378;2024-01-30T09:01:58;94022.63;;;7.80;43.42
52249;BME280;38541;48.130;8.378;2024-01-30T09:04:37;94027.34;;;7.96;42.55
52249;BME280;38541;48.130;8.378;2024-01-30T09:07:04;94024.03;;;8.08;42.14
52249;BME280;38541;48.130;8.378;2024-01-30T09:09:35;94027.19;;;8.17;42.57
52249;BME280;38541;48.130;8.378;2024-01-30T09:12:03;94029.91;;;8.28;42.52
52249;BME280;38541;48.130;8.378;2024-01-30T09:14:33;94028.84;;;8.36;41.93
52249;BME280;38541;48.130;8.378;2024-01-30T09:16:59;94030.38;;;8.44;42.49
52249;BME280;38541;48.130;8.378;2024-01-30T09:19:26;94029.31;;;8.52;42.19
52249;BME280;38541;48.130;8.378;2024-01-30T09:21:53;94030.00;;;8.66;42.08
52249;BME280;38541;48.130;8.378;2024-01-30T09:24:19;94032.31;;;8.74;41.23
52249;BME280;38541;48.130;8.378;2024-01-30T09:26:46;94037.94;;;8.78;41.60
52249;BME280;38541;48.130;8.378;2024-01-30T09:29:12;94046.16;;;8.81;40.98
52249;BME280;38541;48.130;8.378;2024-01-30T09:31:39;94040.41;;;8.91;40.79
52249;BME280;38541;48.130;8.378;2024-01-30T09:34:05;94039.16;;;8.94;39.22
52249;BME280;38541;48.130;8.378;2024-01-30T09:36:32;94034.78;;;9.06;39.36
52249;BME280;38541;48.130;8.378;2024-01-30T09:38:59;94035.38;;;9.08;38.64
52249;BME280;38541;48.130;8.378;2024-01-30T09:41:27;94050.56;;;9.18;39.06
52249;BME280;38541;48.130;8.378;2024-01-30T09:43:54;94051.22;;;9.32;38.65
52249;BME280;38541;48.130;8.378;2024-01-30T09:46:25;94042.59;;;9.44;38.40
52249;BME280;38541;48.130;8.378;2024-01-30T09:48:55;94047.41;;;9.47;38.52
52249;BME280;38541;48.130;8.378;2024-01-30T09:51:22;94042.44;;;9.57;37.85
52249;BME280;38541;48.130;8.378;2024-01-30T09:53:49;94045.75;;;9.64;38.90
52249;BME280;38541;48.130;8.378;2024-01-30T09:56:16;94052.16;;;9.68;38.29
52249;BME280;38541;48.130;8.378;2024-01-30T09:58:43;94053.28;;;9.73;38.22
52249;BME280;38541;48.130;8.378;2024-01-30T10:01:09;94047.59;;;9.76;37.88
52249;BME280;38541;48.130;8.378;2024-01-30T10:03:39;94045.69;;;9.83;37.88
52249;BME280;38541;48.130;8.378;2024-01-30T10:06:07;94056.88;;;9.90;38.28
52249;BME280;38541;48.130;8.378;2024-01-30T10:08:34;94052.22;;;10.04;38.65
52249;BME280;38541;48.130;8.378;2024-01-30T10:11:01;94052.94;;;10.11;37.79
52249;BME280;38541;48.130;8.378;2024-01-30T10:13:28;94047.91;;;10.22;38.72
52249;BME280;38541;48.130;8.378;2024-01-30T10:15:55;94049.75;;;10.33;38.81
52249;BME280;38541;48.130;8.378;2024-01-30T10:18:24;94046.94;;;10.35;37.80
52249;BME280;38541;48.130;8.378;2024-01-30T10:20:51;94048.53;;;10.36;37.46
52249;BME280;38541;48.130;8.378;2024-01-30T10:23:18;94051.72;;;10.38;37.38
52249;BME280;38541;48.130;8.378;2024-01-30T10:25:45;94041.56;;;10.41;36.36
52249;BME280;38541;48.130;8.378;2024-01-30T10:28:12;94044.66;;;10.50;36.99
52249;BME280;38541;48.130;8.378;2024-01-30T10:30:39;94041.22;;;10.62;36.87
52249;BME280;38541;48.130;8.378;2024-01-30T10:33:05;94049.34;;;10.60;36.63
52249;BME280;38541;48.130;8.378;2024-01-30T10:35:32;94047.97;;;10.58;35.46
52249;BME280;38541;48.130;8.378;2024-01-30T10:38:01;94044.66;;;10.50;35.67
52249;BME280;38541;48.130;8.378;2024-01-30T10:40:29;94043.19;;;10.54;35.93
52249;BME280;38541;48.130;8.378;2024-01-30T10:42:56;94043.50;;;10.70;36.41
52249;BME280;38541;48.130;8.378;2024-01-30T10:45:25;94038.84;;;10.72;36.72
52249;BME280;38541;48.130;8.378;2024-01-30T10:47:55;94028.44;;;10.77;36.07
52249;BME280;38541;48.130;8.378;2024-01-30T10:50:24;94037.44;;;10.81;35.58
52249;BME280;38541;48.130;8.378;2024-01-30T10:52:52;94036.06;;;10.91;36.07
52249;BME280;38541;48.130;8.378;2024-01-30T10:55:19;94030.34;;;10.94;35.67
52249;BME280;38541;48.130;8.378;2024-01-30T10:57:47;94031.09;;;11.06;35.84
52249;BME280;38541;48.130;8.378;2024-01-30T11:00:14;94030.38;;;11.23;36.22
52249;BME280;38541;48.130;8.378;2024-01-30T11:02:46;94034.84;;;11.22;36.04
52249;BME280;38541;48.130;8.378;2024-01-30T11:05:13;94023.66;;;11.15;36.20
52249;BME280;38541;48.130;8.378;2024-01-30T11:07:42;94015.44;;;11.11;35.55
52249;BME280;38541;48.130;8.378;2024-01-30T11:10:09;94019.97;;;11.28;35.17
52249;BME280;38541;48.130;8.378;2024-01-30T11:12:40;94008.44;;;11.46;35.49
52249;BME280;38541;48.130;8.378;2024-01-30T11:15:15;94022.31;;;11.41;35.22
52249;BME280;38541;48.130;8.378;2024-01-30T11:20:27;94014.88;;;11.38;35.52
52249;BME280;38541;48.130;8.378;2024-01-30T11:22:57;94011.78;;;11.41;36.75
52249;BME280;38541;48.130;8.378;2024-01-30T11:25:25;94016.47;;;11.39;36.40
52249;BME280;38541;48.130;8.378;2024-01-30T11:27:55;94009.91;;;11.54;35.46
52249;BME280;38541;48.130;8.378;2024-01-30T11:30:26;94007.34;;;11.59;36.00
52249;BME280;38541;48.130;8.378;2024-01-30T11:32:59;94009.63;;;11.67;36.08
52249;BME280;38541;48.130;8.378;2024-01-30T11:35:29;94004.69;;;11.88;34.92
52249;BME280;38541;48.130;8.378;2024-01-30T11:37:57;94010.59;;;11.95;35.59
52249;BME280;38541;48.130;8.378;2024-01-30T11:40:27;93999.50;;;11.93;34.57
52249;BME280;38541;48.130;8.378;2024-01-30T11:42:55;94007.56;;;11.87;35.21
52249;BME280;38541;48.130;8.378;2024-01-30T11:45:22;93997.00;;;11.69;34.56
52249;BME280;38541;48.130;8.378;2024-01-30T11:47:48;93997.66;;;11.77;35.57
52249;BME280;38541;48.130;8.378;2024-01-30T11:50:16;94003.06;;;11.70;35.02
52249;BME280;38541;48.130;8.378;2024-01-30T11:52:42;93997.31;;;11.73;34.97
52249;BME280;38541;48.130;8.378;2024-01-30T11:55:10;93995.75;;;11.89;34.41
52249;BME280;38541;48.130;8.378;2024-01-30T11:57:38;94001.03;;;11.89;35.04
52249;BME280;38541;48.130;8.378;2024-01-30T12:00:06;93998.09;;;12.03;36.61
52249;BME280;38541;48.130;8.378;2024-01-30T12:02:37;93998.97;;;12.08;36.54
52249;BME280;38541;48.130;8.378;2024-01-30T12:05:04;93999.72;;;12.04;35.98
52249;BME280;38541;48.130;8.378;2024-01-30T12:07:31;93993.75;;;11.96;35.82
52249;BME280;38541;48.130;8.378;2024-01-30T12:09:59;93998.53;;;11.99;36.14
52249;BME280;38541;48.130;8.378;2024-01-30T12:12:26;93998.97;;;12.08;36.90
52249;BME280;38541;48.130;8.378;2024-01-30T12:14:53;94007.44;;;12.10;36.31
52249;BME280;38541;48.130;8.378;2024-01-30T12:17:28;94007.63;;;12.04;36.85
52249;BME280;38541;48.130;8.378;2024-01-30T12:22:38;93998.22;;;11.79;37.31
52249;BME280;38541;48.130;8.378;2024-01-30T12:25:16;94000.69;;;11.68;38.27
52249;BME280;38541;48.130;8.378;2024-01-30T12:27:44;93989.00;;;11.64;38.47
52249;BME280;38541;48.130;8.378;2024-01-30T12:30:14;93992.84;;;11.56;38.98
52249;BME280;38541;48.130;8.378;2024-01-30T12:32:42;93989.88;;;11.53;39.02
52249;BME280;38541;48.130;8.378;2024-01-30T12:35:10;93993.81;;;11.67;39.01
52249;BME280;38541;48.130;8.378;2024-01-30T12:37:38;93984.56;;;11.82;40.15
52249;BME280;38541;48.130;8.378;2024-01-30T12:40:07;93991.59;;;11.93;38.99
52249;BME280;38541;48.130;8.378;2024-01-30T12:42:33;93991.63;;;12.10;39.19
52249;BME280;38541;48.130;8.378;2024-01-30T12:45:02;93996.91;;;12.27;39.42
52249;BME280;38541;48.130;8.378;2024-01-30T12:47:29;93989.34;;;12.53;39.40
52249;BME280;38541;48.130;8.378;2024-01-30T12:49:56;93992.72;;;12.49;39.42
52249;BME280;38541;48.130;8.378;2024-01-30T12:52:23;93994.97;;;12.40;39.16
52249;BME280;38541;48.130;8.378;2024-01-30T12:54:51;93987.13;;;12.45;39.76
52249;BME280;38541;48.130;8.378;2024-01-30T12:57:18;93989.91;;;12.55;39.96
52249;BME280;38541;48.130;8.378;2024-01-30T12:59:45;93998.78;;;12.49;39.38
52249;BME280;38541;48.130;8.378;2024-01-30T13:02:12;93991.22;;;12.36;39.63
52249;BME280;38541;48.130;8.378;2024-01-30T13:04:40;93994.00;;;12.46;40.03
52249;BME280;38541;48.130;8.378;2024-01-30T13:07:06;93989.06;;;12.72;40.16
52249;BME280;38541;48.130;8.378;2024-01-30T13:09:33;93995.38;;;13.16;40.16
52249;BME280;38541;48.130;8.378;2024-01-30T13:12:00;93988.88;;;13.23;40.21